sensor_id;sensor_type;location;lat;lon;timestamp;P1;durP1;ratioP1;P2;durP2;ratioP2
28629;SDS011;15817;42.130;24.762;2023-07-13T00:02:15;12.88;;;7.72;;
28629;SDS011;15817;42.130;24.762;2023-07-13T00:05:20;14.20;;;8.00;;
28629;SDS011;15817;42.130;24.762;2023-07-13T00:08:02;10.40;;;8.70;;
28629;SDS011;15817;42.130;24.762;2023-07-13T00:10:51;13.52;;;8.40;;
28629;SDS011;15817;42.130;24.762;2023-07-13T00:13:55;11.02;;;8.48;;
28629;SDS011;15817;42.130;24.762;2023-07-13T00:17:10;11.57;;;8.20;;
28629;SDS011;15817;42.130;24.762;2023-07-13T00:19:58;14.45;;;8.88;;
28629;SDS011;15817;42.130;24.762;2023-07-13T00:22:44;11.77;;;7.85;;
28629;SDS011;15817;42.130;24.762;2023-07-13T00:25:22;11.23;;;8.00;;
28629;SDS011;15817;42.130;24.762;2023-07-13T00:28:24;9.55;;;7.30;;
28629;SDS011;15817;42.130;24.762;2023-07-13T00:30:55;12.38;;;8.50;;
28629;SDS011;15817;42.130;24.762;2023-07-13T00:33:32;10.27;;;7.13;;
28629;SDS011;15817;42.130;24.762;2023-07-13T00:36:13;10.55;;;7.88;;
28629;SDS011;15817;42.130;24.762;2023-07-13T00:39:13;11.18;;;7.47;;
28629;SDS011;15817;42.130;24.762;2023-07-13T00:42:05;11.48;;;6.75;;
28629;SDS011;15817;42.130;24.762;2023-07-13T00:47:53;10.18;;;6.75;;
28629;SDS011;15817;42.130;24.762;2023-07-13T00:50:41;8.48;;;7.22;;
28629;SDS011;15817;42.130;24.762;2023-07-13T00:53:38;17.58;;;6.38;;
28629;SDS011;15817;42.130;24.762;2023-07-13T00:56:33;8.35;;;7.53;;
28629;SDS011;15817;42.130;24.762;2023-07-13T00:59:11;8.80;;;7.10;;
28629;SDS011;15817;42.130;24.762;2023-07-13T01:02:06;8.75;;;6.30;;
28629;SDS011;15817;42.130;24.762;2023-07-13T01:05:21;10.55;;;6.45;;
28629;SDS011;15817;42.130;24.762;2023-07-13T01:08:07;9.18;;;6.28;;
28629;SDS011;15817;42.130;24.762;2023-07-13T01:11:13;15.25;;;7.68;;
28629;SDS011;15817;42.130;24.762;2023-07-13T01:13:58;17.25;;;7.85;;
28629;SDS011;15817;42.130;24.762;2023-07-13T01:16:41;12.93;;;7.22;;
28629;SDS011;15817;42.130;24.762;2023-07-13T01:19:36;11.32;;;7.78;;
28629;SDS011;15817;42.130;24.762;2023-07-13T01:22:32;10.15;;;7.72;;
28629;SDS011;15817;42.130;24.762;2023-07-13T01:25:13;14.63;;;7.53;;
28629;SDS011;15817;42.130;24.762;2023-07-13T01:27:57;14.18;;;6.70;;
28629;SDS011;15817;42.130;24.762;2023-07-13T01:30:58;7.22;;;6.10;;
28629;SDS011;15817;42.130;24.762;2023-07-13T01:33:39;14.60;;;5.88;;
28629;SDS011;15817;42.130;24.762;2023-07-13T01:36:39;10.15;;;5.68;;
28629;SDS011;15817;42.130;24.762;2023-07-13T01:39:15;10.13;;;5.80;;
28629;SDS011;15817;42.130;24.762;2023-07-13T01:42:21;9.25;;;6.25;;
28629;SDS011;15817;42.130;24.762;2023-07-13T01:44:59;10.07;;;5.32;;
28629;SDS011;15817;42.130;24.762;2023-07-13T01:48:04;6.28;;;5.32;;
28629;SDS011;15817;42.130;24.762;2023-07-13T01:50:35;8.02;;;5.53;;
28629;SDS011;15817;42.130;24.762;2023-07-13T01:53:04;10.95;;;6.22;;
28629;SDS011;15817;42.130;24.762;2023-07-13T01:56:14;6.80;;;5.55;;
28629;SDS011;15817;42.130;24.762;2023-07-13T02:02:43;8.73;;;5.78;;
28629;SDS011;15817;42.130;24.762;2023-07-13T02:06:00;8.25;;;5.28;;
28629;SDS011;15817;42.130;24.762;2023-07-13T02:08:48;5.82;;;4.95;;
28629;SDS011;15817;42.130;24.762;2023-07-13T02:11:26;7.05;;;5.43;;
28629;SDS011;15817;42.130;24.762;2023-07-13T02:14:00;11.40;;;5.88;;
28629;SDS011;15817;42.130;24.762;2023-07-13T02:16:50;10.35;;;5.70;;
28629;SDS011;15817;42.130;24.762;2023-07-13T02:19:43;8.93;;;5.45;;
28629;SDS011;15817;42.130;24.762;2023-07-13T02:22:31;6.30;;;5.07;;
28629;SDS011;15817;42.130;24.762;2023-07-13T02:25:28;8.95;;;5.72;;
28629;SDS011;15817;42.130;24.762;2023-07-13T02:28:25;11.68;;;6.05;;
28629;SDS011;15817;42.130;24.762;2023-07-13T02:31:21;7.13;;;4.72;;
28629;SDS011;15817;42.130;24.762;2023-07-13T02:37:04;10.75;;;6.05;;
28629;SDS011;15817;42.130;24.762;2023-07-13T02:39:37;8.65;;;5.70;;
28629;SDS011;15817;42.130;24.762;2023-07-13T02:42:19;9.73;;;5.85;;
28629;SDS011;15817;42.130;24.762;2023-07-13T02:45:05;10.60;;;5.57;;
28629;SDS011;15817;42.130;24.762;2023-07-13T02:47:48;12.40;;;6.53;;
28629;SDS011;15817;42.130;24.762;2023-07-13T02:50:34;12.25;;;6.57;;
28629;SDS011;15817;42.130;24.762;2023-07-13T02:53:47;11.13;;;7.43;;
28629;SDS011;15817;42.130;24.762;2023-07-13T02:57:09;9.95;;;7.32;;
28629;SDS011;15817;42.130;24.762;2023-07-13T03:00:16;13.52;;;7.32;;
28629;SDS011;15817;42.130;24.762;2023-07-13T03:02:55;15.60;;;7.88;;
28629;SDS011;15817;42.130;24.762;2023-07-13T03:05:43;16.33;;;7.38;;
28629;SDS011;15817;42.130;24.762;2023-07-13T03:08:16;23.55;;;7.47;;
28629;SDS011;15817;42.130;24.762;2023-07-13T03:11:03;40.88;;;9.40;;
28629;SDS011;15817;42.130;24.762;2023-07-13T03:13:39;37.70;;;8.88;;
28629;SDS011;15817;42.130;24.762;2023-07-13T03:16:10;28.98;;;7.85;;
28629;SDS011;15817;42.130;24.762;2023-07-13T03:18:40;15.60;;;6.82;;
28629;SDS011;15817;42.130;24.762;2023-07-13T03:21:10;12.23;;;6.35;;
28629;SDS011;15817;42.130;24.762;2023-07-13T03:23:36;13.23;;;6.50;;
28629;SDS011;15817;42.130;24.762;2023-07-13T03:26:17;9.23;;;6.03;;
28629;SDS011;15817;42.130;24.762;2023-07-13T03:28:47;12.23;;;6.43;;
28629;SDS011;15817;42.130;24.762;2023-07-13T03:31:20;15.32;;;7.68;;
28629;SDS011;15817;42.130;24.762;2023-07-13T03:34:07;14.30;;;6.18;;
28629;SDS011;15817;42.130;24.762;2023-07-13T03:36:34;14.20;;;6.32;;
28629;SDS011;15817;42.130;24.762;2023-07-13T03:39:08;19.13;;;6.57;;
28629;SDS011;15817;42.130;24.762;2023-07-13T03:41:58;19.75;;;6.75;;
28629;SDS011;15817;42.130;24.762;2023-07-13T03:44:29;12.88;;;6.90;;
28629;SDS011;15817;42.130;24.762;2023-07-13T03:46:58;13.30;;;6.50;;
28629;SDS011;15817;42.130;24.762;2023-07-13T03:49:43;19.20;;;8.27;;
28629;SDS011;15817;42.130;24.762;2023-07-13T03:52:10;24.58;;;8.02;;
28629;SDS011;15817;42.130;24.762;2023-07-13T03:55:15;24.27;;;7.75;;
28629;SDS011;15817;42.130;24.762;2023-07-13T03:57:56;18.58;;;6.65;;
28629;SDS011;15817;42.130;24.762;2023-07-13T04:01:18;25.67;;;7.30;;
28629;SDS011;15817;42.130;24.762;2023-07-13T04:07:08;22.10;;;7.10;;
28629;SDS011;15817;42.130;24.762;2023-07-13T04:10:05;24.23;;;7.68;;
28629;SDS011;15817;42.130;24.762;2023-07-13T04:12:37;14.00;;;6.40;;
28629;SDS011;15817;42.130;24.762;2023-07-13T04:15:17;20.45;;;6.95;;
28629;SDS011;15817;42.130;24.762;2023-07-13T04:18:14;20.95;;;6.88;;
28629;SDS011;15817;42.130;24.762;2023-07-13T04:24:50;10.80;;;6.22;;
28629;SDS011;15817;42.130;24.762;2023-07-13T04:27:19;12.13;;;6.93;;
28629;SDS011;15817;42.130;24.762;2023-07-13T04:30:02;17.13;;;6.78;;
28629;SDS011;15817;42.130;24.762;2023-07-13T04:32:34;17.45;;;6.72;;
28629;SDS011;15817;42.130;24.762;2023-07-13T04:35:00;25.58;;;7.13;;
28629;SDS011;15817;42.130;24.762;2023-07-13T04:37:29;14.90;;;6.80;;
28629;SDS011;15817;42.130;24.762;2023-07-13T04:40:29;14.43;;;6.93;;
28629;SDS011;15817;42.130;24.762;2023-07-13T04:43:08;11.55;;;6.93;;
28629;SDS011;15817;42.130;24.762;2023-07-13T04:45:40;11.82;;;6.25;;
28629;SDS011;15817;42.130;24.762;2023-07-13T04:48:25;14.40;;;6.78;;
28629;SDS011;15817;42.130;24.762;2023-07-13T04:53:59;11.32;;;7.35;;
28629;SDS011;15817;42.130;24.762;2023-07-13T04:59:46;17.90;;;7.07;;
28629;SDS011;15817;42.130;24.762;2023-07-13T05:02:20;11.80;;;6.65;;
28629;SDS011;15817;42.130;24.762;2023-07-13T05:13:00;24.98;;;8.73;;
28629;SDS011;15817;42.130;24.762;2023-07-13T05:18:50;13.25;;;7.72;;
28629;SDS011;15817;42.130;24.762;2023-07-13T05:22:01;19.02;;;7.40;;
28629;SDS011;15817;42.130;24.762;2023-07-13T05:31:24;17.00;;;7.72;;
28629;SDS011;15817;42.130;24.762;2023-07-13T05:46:41;12.45;;;8.07;;
28629;SDS011;15817;42.130;24.762;2023-07-13T05:49:48;16.67;;;7.90;;
28629;SDS011;15817;42.130;24.762;2023-07-13T05:53:22;11.00;;;7.28;;
28629;SDS011;15817;42.130;24.762;2023-07-13T05:56:19;14.30;;;7.60;;
28629;SDS011;15817;42.130;24.762;2023-07-13T05:59:31;17.27;;;8.32;;
28629;SDS011;15817;42.130;24.762;2023-07-13T06:02:16;18.15;;;8.35;;
28629;SDS011;15817;42.130;24.762;2023-07-13T06:04:58;17.25;;;8.23;;
28629;SDS011;15817;42.130;24.762;2023-07-13T06:07:32;18.65;;;8.63;;
28629;SDS011;15817;42.130;24.762;2023-07-13T06:10:31;14.70;;;8.23;;
28629;SDS011;15817;42.130;24.762;2023-07-13T06:13:31;14.38;;;8.68;;
28629;SDS011;15817;42.130;24.762;2023-07-13T06:16:43;8.52;;;7.63;;
28629;SDS011;15817;42.130;24.762;2023-07-13T06:19:58;8.65;;;7.70;;
28629;SDS011;15817;42.130;24.762;2023-07-13T06:23:10;9.13;;;7.45;;
28629;SDS011;15817;42.130;24.762;2023-07-13T06:26:02;14.95;;;7.90;;
28629;SDS011;15817;42.130;24.762;2023-07-13T06:29:04;17.30;;;8.10;;
28629;SDS011;15817;42.130;24.762;2023-07-13T06:38:49;15.40;;;7.30;;
28629;SDS011;15817;42.130;24.762;2023-07-13T06:42:01;13.02;;;7.47;;
28629;SDS011;15817;42.130;24.762;2023-07-13T07:29:37;11.25;;;7.55;;
28629;SDS011;15817;42.130;24.762;2023-07-13T08:06:46;12.77;;;7.40;;
28629;SDS011;15817;42.130;24.762;2023-07-13T08:09:58;8.77;;;6.90;;
28629;SDS011;15817;42.130;24.762;2023-07-13T08:13:02;10.55;;;6.53;;
28629;SDS011;15817;42.130;24.762;2023-07-13T08:19:09;12.13;;;7.20;;
28629;SDS011;15817;42.130;24.762;2023-07-13T08:25:19;16.88;;;7.00;;
28629;SDS011;15817;42.130;24.762;2023-07-13T08:28:08;10.20;;;7.32;;
28629;SDS011;15817;42.130;24.762;2023-07-13T08:30:42;11.70;;;6.72;;
28629;SDS011;15817;42.130;24.762;2023-07-13T08:33:31;11.27;;;7.53;;
28629;SDS011;15817;42.130;24.762;2023-07-13T08:36:16;7.82;;;6.53;;
28629;SDS011;15817;42.130;24.762;2023-07-13T08:42:03;14.73;;;7.22;;
28629;SDS011;15817;42.130;24.762;2023-07-13T08:44:44;17.00;;;8.02;;
28629;SDS011;15817;42.130;24.762;2023-07-13T08:47:15;11.85;;;6.00;;
28629;SDS011;15817;42.130;24.762;2023-07-13T08:49:48;13.70;;;6.43;;
28629;SDS011;15817;42.130;24.762;2023-07-13T08:53:01;10.55;;;5.97;;
28629;SDS011;15817;42.130;24.762;2023-07-13T08:55:48;14.02;;;6.25;;
28629;SDS011;15817;42.130;24.762;2023-07-13T08:58:23;14.10;;;6.28;;
28629;SDS011;15817;42.130;24.762;2023-07-13T09:03:48;11.95;;;6.53;;
28629;SDS011;15817;42.130;24.762;2023-07-13T09:06:18;12.93;;;6.28;;
28629;SDS011;15817;42.130;24.762;2023-07-13T09:15:46;12.20;;;5.82;;
28629;SDS011;15817;42.130;24.762;2023-07-13T09:18:26;13.68;;;5.75;;
28629;SDS011;15817;42.130;24.762;2023-07-13T09:22:21;13.40;;;6.43;;
28629;SDS011;15817;42.130;24.762;2023-07-13T09:27:48;8.95;;;6.10;;
28629;SDS011;15817;42.130;24.762;2023-07-13T09:30:48;8.50;;;5.65;;
28629;SDS011;15817;42.130;24.762;2023-07-13T09:33:33;9.30;;;6.00;;
28629;SDS011;15817;42.130;24.762;2023-07-13T09:36:37;15.55;;;6.22;;
28629;SDS011;15817;42.130;24.762;2023-07-13T09:45:45;13.25;;;6.07;;
28629;SDS011;15817;42.130;24.762;2023-07-13T09:48:52;19.70;;;6.40;;
28629;SDS011;15817;42.130;24.762;2023-07-13T09:51:50;10.60;;;5.93;;
28629;SDS011;15817;42.130;24.762;2023-07-13T09:54:44;9.57;;;6.47;;
28629;SDS011;15817;42.130;24.762;2023-07-13T09:57:17;12.55;;;6.05;;
28629;SDS011;15817;42.130;24.762;2023-07-13T09:59:56;13.15;;;5.38;;
28629;SDS011;15817;42.130;24.762;2023-07-13T10:13:21;13.88;;;6.50;;
28629;SDS011;15817;42.130;24.762;2023-07-13T10:16:26;9.70;;;6.75;;
28629;SDS011;15817;42.130;24.762;2023-07-13T10:19:42;11.77;;;5.63;;
28629;SDS011;15817;42.130;24.762;2023-07-13T10:25:57;11.93;;;5.57;;
28629;SDS011;15817;42.130;24.762;2023-07-13T10:28:53;9.98;;;5.32;;
28629;SDS011;15817;42.130;24.762;2023-07-13T10:31:24;8.27;;;5.28;;
28629;SDS011;15817;42.130;24.762;2023-07-13T10:38:07;11.02;;;5.30;;
28629;SDS011;15817;42.130;24.762;2023-07-13T10:41:30;10.13;;;6.15;;
28629;SDS011;15817;42.130;24.762;2023-07-13T10:44:25;10.18;;;5.38;;
28629;SDS011;15817;42.130;24.762;2023-07-13T10:47:15;9.52;;;4.53;;
28629;SDS011;15817;42.130;24.762;2023-07-13T10:49:54;13.80;;;4.80;;
28629;SDS011;15817;42.130;24.762;2023-07-13T10:52:41;12.93;;;4.70;;
28629;SDS011;15817;42.130;24.762;2023-07-13T10:55:31;24.75;;;5.45;;
28629;SDS011;15817;42.130;24.762;2023-07-13T10:58:13;5.82;;;3.80;;
28629;SDS011;15817;42.130;24.762;2023-07-13T11:01:06;5.50;;;3.90;;
28629;SDS011;15817;42.130;24.762;2023-07-13T11:03:38;14.43;;;3.80;;
28629;SDS011;15817;42.130;24.762;2023-07-13T11:24:53;7.65;;;3.60;;
28629;SDS011;15817;42.130;24.762;2023-07-13T11:36:38;6.53;;;3.55;;
28629;SDS011;15817;42.130;24.762;2023-07-13T11:39:29;6.63;;;3.88;;
28629;SDS011;15817;42.130;24.762;2023-07-13T11:46:12;5.20;;;3.47;;
28629;SDS011;15817;42.130;24.762;2023-07-13T11:49:06;7.25;;;3.25;;
28629;SDS011;15817;42.130;24.762;2023-07-13T11:51:37;8.18;;;4.10;;
28629;SDS011;15817;42.130;24.762;2023-07-13T11:54:43;5.65;;;3.60;;
28629;SDS011;15817;42.130;24.762;2023-07-13T11:59:59;5.95;;;3.95;;
28629;SDS011;15817;42.130;24.762;2023-07-13T12:03:15;9.13;;;3.45;;
28629;SDS011;15817;42.130;24.762;2023-07-13T12:05:55;7.65;;;3.35;;
28629;SDS011;15817;42.130;24.762;2023-07-13T12:08:25;6.35;;;3.33;;
28629;SDS011;15817;42.130;24.762;2023-07-13T12:11:04;6.30;;;3.60;;
28629;SDS011;15817;42.130;24.762;2023-07-13T12:13:35;10.35;;;3.63;;
28629;SDS011;15817;42.130;24.762;2023-07-13T12:16:09;7.30;;;3.42;;
28629;SDS011;15817;42.130;24.762;2023-07-13T12:18:42;9.48;;;3.53;;
28629;SDS011;15817;42.130;24.762;2023-07-13T12:21:16;9.40;;;3.88;;
28629;SDS011;15817;42.130;24.762;2023-07-13T12:23:44;12.05;;;4.35;;
28629;SDS011;15817;42.130;24.762;2023-07-13T12:26:13;6.22;;;4.43;;
28629;SDS011;15817;42.130;24.762;2023-07-13T12:28:45;8.63;;;4.82;;
28629;SDS011;15817;42.130;24.762;2023-07-13T12:31:24;7.80;;;4.43;;
28629;SDS011;15817;42.130;24.762;2023-07-13T12:34:02;7.57;;;4.22;;
28629;SDS011;15817;42.130;24.762;2023-07-13T12:36:41;5.68;;;3.97;;
28629;SDS011;15817;42.130;24.762;2023-07-13T12:39:17;8.40;;;4.57;;
28629;SDS011;15817;42.130;24.762;2023-07-13T12:41:51;7.70;;;3.92;;
28629;SDS011;15817;42.130;24.762;2023-07-13T12:44:24;8.93;;;4.05;;
28629;SDS011;15817;42.130;24.762;2023-07-13T12:47:10;10.65;;;4.25;;
28629;SDS011;15817;42.130;24.762;2023-07-13T12:49:42;13.63;;;4.85;;
28629;SDS011;15817;42.130;24.762;2023-07-13T12:52:17;8.00;;;4.75;;
28629;SDS011;15817;42.130;24.762;2023-07-13T12:54:54;7.90;;;4.88;;
28629;SDS011;15817;42.130;24.762;2023-07-13T12:57:22;10.10;;;4.18;;
28629;SDS011;15817;42.130;24.762;2023-07-13T12:59:51;15.95;;;4.38;;
28629;SDS011;15817;42.130;24.762;2023-07-13T13:02:21;8.73;;;4.03;;
28629;SDS011;15817;42.130;24.762;2023-07-13T13:05:09;10.57;;;4.63;;
28629;SDS011;15817;42.130;24.762;2023-07-13T13:07:39;9.50;;;4.40;;
28629;SDS011;15817;42.130;24.762;2023-07-13T13:10:12;6.88;;;4.20;;
28629;SDS011;15817;42.130;24.762;2023-07-13T13:13:04;7.55;;;4.00;;
28629;SDS011;15817;42.130;24.762;2023-07-13T13:16:01;9.63;;;4.25;;
28629;SDS011;15817;42.130;24.762;2023-07-13T13:19:41;10.05;;;4.30;;
28629;SDS011;15817;42.130;24.762;2023-07-13T13:22:41;10.27;;;3.92;;
28629;SDS011;15817;42.130;24.762;2023-07-13T13:25:59;7.90;;;4.15;;
28629;SDS011;15817;42.130;24.762;2023-07-13T13:29:13;7.63;;;4.18;;
28629;SDS011;15817;42.130;24.762;2023-07-13T13:31:49;11.02;;;4.38;;
28629;SDS011;15817;42.130;24.762;2023-07-13T13:34:51;7.65;;;3.63;;
28629;SDS011;15817;42.130;24.762;2023-07-13T13:37:27;9.80;;;4.13;;
28629;SDS011;15817;42.130;24.762;2023-07-13T13:40:16;12.50;;;4.10;;
28629;SDS011;15817;42.130;24.762;2023-07-13T13:42:51;6.40;;;3.78;;
28629;SDS011;15817;42.130;24.762;2023-07-13T13:45:40;9.98;;;4.43;;
28629;SDS011;15817;42.130;24.762;2023-07-13T13:48:39;13.85;;;3.95;;
28629;SDS011;15817;42.130;24.762;2023-07-13T13:51:29;12.05;;;4.88;;
28629;SDS011;15817;42.130;24.762;2023-07-13T13:54:32;9.23;;;4.07;;
28629;SDS011;15817;42.130;24.762;2023-07-13T14:00:26;13.38;;;4.53;;
28629;SDS011;15817;42.130;24.762;2023-07-13T14:09:52;10.38;;;4.32;;
28629;SDS011;15817;42.130;24.762;2023-07-13T14:12:44;14.90;;;4.18;;
28629;SDS011;15817;42.130;24.762;2023-07-13T14:16:08;10.57;;;4.30;;
28629;SDS011;15817;42.130;24.762;2023-07-13T14:18:56;12.63;;;4.40;;
28629;SDS011;15817;42.130;24.762;2023-07-13T14:21:36;9.13;;;4.60;;
28629;SDS011;15817;42.130;24.762;2023-07-13T14:24:43;16.52;;;4.25;;
28629;SDS011;15817;42.130;24.762;2023-07-13T14:31:18;12.43;;;4.88;;
28629;SDS011;15817;42.130;24.762;2023-07-13T14:34:01;14.20;;;4.45;;
28629;SDS011;15817;42.130;24.762;2023-07-13T14:37:03;8.63;;;3.58;;
28629;SDS011;15817;42.130;24.762;2023-07-13T14:39:46;9.35;;;4.25;;
28629;SDS011;15817;42.130;24.762;2023-07-13T14:42:48;10.98;;;4.00;;
28629;SDS011;15817;42.130;24.762;2023-07-13T14:45:33;12.45;;;4.90;;
28629;SDS011;15817;42.130;24.762;2023-07-13T14:48:00;8.68;;;4.10;;
28629;SDS011;15817;42.130;24.762;2023-07-13T14:51:10;7.20;;;3.85;;
28629;SDS011;15817;42.130;24.762;2023-07-13T14:53:59;12.00;;;4.40;;
28629;SDS011;15817;42.130;24.762;2023-07-13T14:56:54;10.00;;;4.30;;
28629;SDS011;15817;42.130;24.762;2023-07-13T15:00:00;9.23;;;4.13;;
28629;SDS011;15817;42.130;24.762;2023-07-13T15:05:41;9.98;;;4.18;;
28629;SDS011;15817;42.130;24.762;2023-07-13T15:08:32;12.60;;;4.10;;
28629;SDS011;15817;42.130;24.762;2023-07-13T15:14:06;11.18;;;4.30;;
28629;SDS011;15817;42.130;24.762;2023-07-13T15:20:24;19.33;;;4.70;;
28629;SDS011;15817;42.130;24.762;2023-07-13T15:22:54;13.68;;;4.50;;
28629;SDS011;15817;42.130;24.762;2023-07-13T15:25:27;7.80;;;4.03;;
28629;SDS011;15817;42.130;24.762;2023-07-13T15:27:56;10.57;;;4.18;;
28629;SDS011;15817;42.130;24.762;2023-07-13T15:30:27;12.40;;;4.40;;
28629;SDS011;15817;42.130;24.762;2023-07-13T15:33:22;12.18;;;4.97;;
28629;SDS011;15817;42.130;24.762;2023-07-13T15:36:04;12.35;;;3.90;;
28629;SDS011;15817;42.130;24.762;2023-07-13T15:38:36;11.10;;;4.72;;
28629;SDS011;15817;42.130;24.762;2023-07-13T15:41:37;11.75;;;4.30;;
28629;SDS011;15817;42.130;24.762;2023-07-13T15:44:21;11.70;;;4.00;;
28629;SDS011;15817;42.130;24.762;2023-07-13T15:46:53;12.48;;;4.32;;
28629;SDS011;15817;42.130;24.762;2023-07-13T15:49:19;12.63;;;4.28;;
28629;SDS011;15817;42.130;24.762;2023-07-13T15:51:48;12.55;;;4.20;;
28629;SDS011;15817;42.130;24.762;2023-07-13T15:54:39;13.05;;;4.60;;
28629;SDS011;15817;42.130;24.762;2023-07-13T15:57:08;16.08;;;4.70;;
28629;SDS011;15817;42.130;24.762;2023-07-13T15:59:37;15.18;;;3.90;;
28629;SDS011;15817;42.130;24.762;2023-07-13T16:02:20;8.85;;;3.90;;
28629;SDS011;15817;42.130;24.762;2023-07-13T16:04:49;13.65;;;4.95;;
28629;SDS011;15817;42.130;24.762;2023-07-13T16:07:19;15.50;;;4.22;;
28629;SDS011;15817;42.130;24.762;2023-07-13T16:09:50;15.02;;;4.40;;
28629;SDS011;15817;42.130;24.762;2023-07-13T16:12:18;9.20;;;4.15;;
28629;SDS011;15817;42.130;24.762;2023-07-13T16:14:44;12.70;;;4.50;;
28629;SDS011;15817;42.130;24.762;2023-07-13T16:17:16;10.52;;;4.18;;
28629;SDS011;15817;42.130;24.762;2023-07-13T16:19:42;14.00;;;4.70;;
28629;SDS011;15817;42.130;24.762;2023-07-13T16:22:16;19.30;;;4.68;;
28629;SDS011;15817;42.130;24.762;2023-07-13T16:24:46;9.27;;;4.60;;
28629;SDS011;15817;42.130;24.762;2023-07-13T16:27:35;7.72;;;4.28;;
28629;SDS011;15817;42.130;24.762;2023-07-13T16:30:14;19.27;;;4.70;;
28629;SDS011;15817;42.130;24.762;2023-07-13T16:32:50;12.35;;;4.22;;
28629;SDS011;15817;42.130;24.762;2023-07-13T16:35:36;11.98;;;4.07;;
28629;SDS011;15817;42.130;24.762;2023-07-13T16:38:31;14.27;;;5.13;;
28629;SDS011;15817;42.130;24.762;2023-07-13T16:44:33;13.20;;;4.45;;
28629;SDS011;15817;42.130;24.762;2023-07-13T16:47:08;15.07;;;5.15;;
28629;SDS011;15817;42.130;24.762;2023-07-13T16:50:30;11.20;;;4.72;;
28629;SDS011;15817;42.130;24.762;2023-07-13T16:53:00;10.95;;;4.03;;
28629;SDS011;15817;42.130;24.762;2023-07-13T16:55:36;13.50;;;4.78;;
28629;SDS011;15817;42.130;24.762;2023-07-13T16:59:07;12.13;;;5.00;;
28629;SDS011;15817;42.130;24.762;2023-07-13T17:05:17;18.75;;;5.30;;
28629;SDS011;15817;42.130;24.762;2023-07-13T17:07:45;13.52;;;4.85;;
28629;SDS011;15817;42.130;24.762;2023-07-13T17:10:19;10.82;;;4.80;;
28629;SDS011;15817;42.130;24.762;2023-07-13T17:13:24;13.82;;;5.00;;
28629;SDS011;15817;42.130;24.762;2023-07-13T17:16:02;7.68;;;4.65;;
28629;SDS011;15817;42.130;24.762;2023-07-13T17:18:34;13.32;;;5.05;;
28629;SDS011;15817;42.130;24.762;2023-07-13T17:21:24;19.55;;;6.40;;
28629;SDS011;15817;42.130;24.762;2023-07-13T17:23:52;13.73;;;5.70;;
28629;SDS011;15817;42.130;24.762;2023-07-13T17:26:24;10.75;;;4.95;;
28629;SDS011;15817;42.130;24.762;2023-07-13T17:29:06;14.80;;;4.90;;
28629;SDS011;15817;42.130;24.762;2023-07-13T17:35:33;12.20;;;5.25;;
28629;SDS011;15817;42.130;24.762;2023-07-13T17:38:11;13.50;;;5.50;;
28629;SDS011;15817;42.130;24.762;2023-07-13T17:41:09;12.02;;;5.40;;
28629;SDS011;15817;42.130;24.762;2023-07-13T17:44:05;13.80;;;5.93;;
28629;SDS011;15817;42.130;24.762;2023-07-13T17:49:49;15.65;;;5.63;;
28629;SDS011;15817;42.130;24.762;2023-07-13T17:52:21;12.60;;;5.57;;
28629;SDS011;15817;42.130;24.762;2023-07-13T17:55:20;16.90;;;6.45;;
28629;SDS011;15817;42.130;24.762;2023-07-13T17:58:22;18.40;;;5.80;;
28629;SDS011;15817;42.130;24.762;2023-07-13T18:01:09;13.55;;;6.38;;
28629;SDS011;15817;42.130;24.762;2023-07-13T18:03:54;19.10;;;6.45;;
28629;SDS011;15817;42.130;24.762;2023-07-13T18:06:32;17.15;;;6.53;;
28629;SDS011;15817;42.130;24.762;2023-07-13T18:09:22;12.90;;;6.43;;
28629;SDS011;15817;42.130;24.762;2023-07-13T18:11:51;24.58;;;6.78;;
28629;SDS011;15817;42.130;24.762;2023-07-13T18:14:23;15.77;;;6.25;;
28629;SDS011;15817;42.130;24.762;2023-07-13T18:16:54;15.68;;;6.55;;
28629;SDS011;15817;42.130;24.762;2023-07-13T18:19:41;14.27;;;6.30;;
28629;SDS011;15817;42.130;24.762;2023-07-13T18:22:23;13.57;;;5.70;;
28629;SDS011;15817;42.130;24.762;2023-07-13T18:25:56;13.15;;;6.15;;
28629;SDS011;15817;42.130;24.762;2023-07-13T18:28:24;16.10;;;5.82;;
28629;SDS011;15817;42.130;24.762;2023-07-13T18:31:25;17.10;;;5.85;;
28629;SDS011;15817;42.130;24.762;2023-07-13T18:34:51;20.48;;;7.50;;
28629;SDS011;15817;42.130;24.762;2023-07-13T18:37:44;16.60;;;6.32;;
28629;SDS011;15817;42.130;24.762;2023-07-13T18:40:28;22.55;;;7.07;;
28629;SDS011;15817;42.130;24.762;2023-07-13T18:43:02;25.98;;;6.78;;
28629;SDS011;15817;42.130;24.762;2023-07-13T18:46:01;16.60;;;6.97;;
28629;SDS011;15817;42.130;24.762;2023-07-13T18:48:48;30.27;;;7.15;;
28629;SDS011;15817;42.130;24.762;2023-07-13T18:51:40;27.38;;;6.70;;
28629;SDS011;15817;42.130;24.762;2023-07-13T18:54:20;22.30;;;7.55;;
28629;SDS011;15817;42.130;24.762;2023-07-13T19:01:11;31.23;;;7.53;;
28629;SDS011;15817;42.130;24.762;2023-07-13T19:04:29;19.77;;;5.85;;
28629;SDS011;15817;42.130;24.762;2023-07-13T19:10:41;17.35;;;6.10;;
28629;SDS011;15817;42.130;24.762;2023-07-13T19:13:45;17.80;;;5.82;;
28629;SDS011;15817;42.130;24.762;2023-07-13T19:16:19;12.32;;;5.57;;
28629;SDS011;15817;42.130;24.762;2023-07-13T19:19:22;20.95;;;5.43;;
28629;SDS011;15817;42.130;24.762;2023-07-13T19:22:09;22.20;;;6.45;;
28629;SDS011;15817;42.130;24.762;2023-07-13T19:32:24;14.27;;;5.43;;
28629;SDS011;15817;42.130;24.762;2023-07-13T19:34:56;16.52;;;5.78;;
28629;SDS011;15817;42.130;24.762;2023-07-13T19:37:58;14.68;;;4.97;;
28629;SDS011;15817;42.130;24.762;2023-07-13T19:47:22;12.13;;;5.65;;
28629;SDS011;15817;42.130;24.762;2023-07-13T19:50:27;14.75;;;5.53;;
28629;SDS011;15817;42.130;24.762;2023-07-13T19:53:12;15.40;;;5.50;;
28629;SDS011;15817;42.130;24.762;2023-07-13T19:56:22;14.73;;;4.90;;
28629;SDS011;15817;42.130;24.762;2023-07-13T20:02:09;13.15;;;4.70;;
28629;SDS011;15817;42.130;24.762;2023-07-13T20:12:04;12.95;;;4.47;;
28629;SDS011;15817;42.130;24.762;2023-07-13T20:14:53;14.77;;;4.85;;
28629;SDS011;15817;42.130;24.762;2023-07-13T20:17:51;17.40;;;4.55;;
28629;SDS011;15817;42.130;24.762;2023-07-13T20:20:43;13.90;;;5.18;;
28629;SDS011;15817;42.130;24.762;2023-07-13T20:23:26;21.70;;;5.47;;
28629;SDS011;15817;42.130;24.762;2023-07-13T20:26:14;11.25;;;5.18;;
28629;SDS011;15817;42.130;24.762;2023-07-13T20:28:44;14.32;;;5.60;;
28629;SDS011;15817;42.130;24.762;2023-07-13T20:31:13;22.58;;;6.38;;
28629;SDS011;15817;42.130;24.762;2023-07-13T20:33:55;18.27;;;5.40;;
28629;SDS011;15817;42.130;24.762;2023-07-13T20:36:25;15.00;;;5.38;;
28629;SDS011;15817;42.130;24.762;2023-07-13T20:39:07;17.13;;;5.40;;
28629;SDS011;15817;42.130;24.762;2023-07-13T20:41:41;13.68;;;5.25;;
28629;SDS011;15817;42.130;24.762;2023-07-13T20:44:14;19.95;;;5.00;;
28629;SDS011;15817;42.130;24.762;2023-07-13T20:46:46;14.45;;;5.28;;
28629;SDS011;15817;42.130;24.762;2023-07-13T20:49:21;16.30;;;5.47;;
28629;SDS011;15817;42.130;24.762;2023-07-13T20:51:55;19.20;;;4.85;;
28629;SDS011;15817;42.130;24.762;2023-07-13T20:54:57;13.55;;;4.72;;
28629;SDS011;15817;42.130;24.762;2023-07-13T20:57:23;13.10;;;4.85;;
28629;SDS011;15817;42.130;24.762;2023-07-13T21:00:01;17.60;;;4.30;;
28629;SDS011;15817;42.130;24.762;2023-07-13T21:02:32;14.20;;;5.15;;
28629;SDS011;15817;42.130;24.762;2023-07-13T21:08:28;12.65;;;4.78;;
28629;SDS011;15817;42.130;24.762;2023-07-13T21:11:08;12.23;;;4.85;;